Time;durP1;ratioP1;P1;durP2;ratioP2;P2;SDS_P1;SDS_P2;PMS_P1;PMS_P2;Temp;Humidity;BMP_temperature;BMP_pressure;BME280_temperature;BME280_humidity;BME280_pressure;Samples;Min_cycle;Max_cycle;Signal;HPM_P1;HPM_P2
2024/03/28 00:01:50;;;;;;;6.07;2.40;;;;;;;11.70;64.21;98483.31;5071558;28;20051;-78
2024/03/28 00:04:55;;;;;;;8.55;3.22;;;;;;;11.73;64.87;98482.94;5073494;28;20044;-76
2024/03/28 00:07:59;;;;;;;8.23;1.80;;;;;;;11.53;64.01;98489.06;5075946;28;20486;-78
2024/03/28 00:11:04;;;;;;;5.35;2.10;;;;;;;11.65;63.79;98484.88;5075912;28;20051;-78
2024/03/28 00:14:09;;;;;;;5.18;1.63;;;;;;;11.66;64.55;98484.69;5075900;28;20043;-77
2024/03/28 00:17:13;;;;;;;8.35;1.77;;;;;;;11.65;64.91;98501.00;5074791;28;20043;-77
2024/03/28 00:20:18;;;;;;;5.10;1.65;;;;;;;11.64;65.00;98488.56;5075749;28;20048;-77
2024/03/28 00:23:23;;;;;;;4.07;1.40;;;;;;;11.57;64.49;98493.03;5075967;28;20051;-77
2024/03/28 00:26:27;;;;;;;6.47;1.75;;;;;;;11.57;64.34;98493.03;5075657;28;20054;-78
2024/03/28 00:29:32;;;;;;;4.40;1.05;;;;;;;11.53;63.69;98507.88;5075625;28;20439;-77
2024/03/28 00:32:36;;;;;;;4.38;1.13;;;;;;;11.45;63.46;98505.28;5075657;28;20486;-77
2024/03/28 00:35:49;;;;;;;4.28;1.02;;;;;;;11.57;63.11;98511.84;5075487;28;20059;-77
2024/03/28 00:38:56;;;;;;;4.28;0.90;;;;;;;11.40;62.20;98511.19;5075451;28;20139;-78
2024/03/28 00:42:01;;;;;;;4.47;1.08;;;;;;;11.49;61.90;98506.56;5075405;28;20100;-78
2024/03/28 00:45:05;;;;;;;2.05;0.73;;;;;;;11.61;62.25;98516.66;5075436;28;20056;-77
2024/03/28 00:48:11;;;;;;;3.22;0.80;;;;;;;11.61;62.46;98521.19;5075390;28;20352;-77
2024/03/28 00:51:16;;;;;;;3.85;0.77;;;;;;;11.62;62.65;98518.34;5075308;28;20367;-77
2024/03/28 00:54:20;;;;;;;3.40;0.90;;;;;;;11.45;63.74;98518.69;5075257;28;20056;-78
2024/03/28 00:57:25;;;;;;;2.72;1.45;;;;;;;11.45;63.67;98518.69;5075384;28;20052;-77
2024/03/28 01:00:29;;;;;;;3.35;0.85;;;;;;;11.40;63.59;98519.25;5074805;28;20091;-77
2024/03/28 01:03:34;;;;;;;3.50;0.80;;;;;;;11.42;63.68;98509.16;5074824;28;20154;-77
2024/03/28 01:06:39;;;;;;;3.05;0.70;;;;;;;11.38;64.55;98504.34;5074804;28;20371;-77
2024/03/28 01:09:45;;;;;;;3.10;0.82;;;;;;;11.42;64.08;98501.09;5074056;28;20052;-77
2024/03/28 01:12:50;;;;;;;2.50;0.55;;;;;;;11.37;63.22;98500.81;5074899;28;20055;-77
2024/03/28 01:15:57;;;;;;;3.65;0.73;;;;;;;11.44;61.50;98503.59;5074396;28;20056;-77
2024/03/28 01:19:02;;;;;;;3.83;1.02;;;;;;;11.46;61.56;98497.00;5073827;28;20055;-77
2024/03/28 01:22:06;;;;;;;6.63;0.90;;;;;;;11.47;62.34;98492.47;5074565;28;20047;-76
2024/03/28 01:25:11;;;;;;;7.00;1.60;;;;;;;11.44;62.72;98498.22;5074289;28;20395;-77
2024/03/28 01:28:16;;;;;;;2.40;0.80;;;;;;;11.49;62.62;98488.59;5074499;28;20059;-77
2024/03/28 01:31:20;;;;;;;4.40;0.73;;;;;;;11.46;63.14;98498.84;5074127;28;20407;-77
2024/03/28 01:34:26;;;;;;;4.00;0.90;;;;;;;11.43;64.24;98491.19;5074407;28;20486;-77
2024/03/28 01:37:30;;;;;;;3.13;0.90;;;;;;;11.37;64.25;98508.03;5074497;28;20075;-78
2024/03/28 01:40:34;;;;;;;5.10;1.85;;;;;;;11.32;64.40;98515.81;5072923;28;20056;-78
2024/03/28 01:43:39;;;;;;;2.78;0.90;;;;;;;11.27;65.59;98512.84;5074247;28;20047;-77
2024/03/28 01:46:44;;;;;;;2.67;0.75;;;;;;;11.16;65.67;98505.25;5073896;28;20052;-78
2024/03/28 01:49:50;;;;;;;3.50;0.80;;;;;;;11.15;65.52;98508.94;5074122;28;20039;-78
2024/03/28 01:52:55;;;;;;;4.10;1.00;;;;;;;11.08;66.25;98520.41;5073869;28;20098;-78
2024/03/28 01:55:59;;;;;;;7.75;1.00;;;;;;;11.01;66.86;98519.47;5072995;28;20047;-77
2024/03/28 01:59:05;;;;;;;4.30;0.85;;;;;;;11.02;66.41;98520.31;5073641;28;20051;-77
2024/03/28 02:02:10;;;;;;;3.50;1.02;;;;;;;10.87;66.81;98517.59;5073748;28;20053;-77
2024/03/28 02:05:15;;;;;;;4.68;1.17;;;;;;;11.05;65.75;98512.72;5073800;28;20051;-78
2024/03/28 02:08:19;;;;;;;6.05;1.45;;;;;;;11.16;65.35;98510.63;5073808;28;20052;-77
2024/03/28 02:11:24;;;;;;;3.75;0.82;;;;;;;11.08;67.00;98512.34;5073207;28;20402;-78
2024/03/28 02:14:28;;;;;;;2.80;0.60;;;;;;;11.25;65.62;98506.81;5073676;28;20051;-78
2024/03/28 02:17:33;;;;;;;1.73;0.80;;;;;;;11.18;65.75;98492.47;5073554;28;20051;-77
2024/03/28 02:20:38;;;;;;;2.97;0.80;;;;;;;11.15;65.52;98492.84;5073428;28;20055;-77
2024/03/28 02:23:43;;;;;;;2.33;0.63;;;;;;;11.24;64.96;98513.19;5073593;28;20052;-77
2024/03/28 02:26:47;;;;;;;4.97;0.90;;;;;;;11.26;65.55;98503.94;5072191;28;20051;-77
2024/03/28 02:29:52;;;;;;;3.83;0.77;;;;;;;11.13;65.12;98521.72;5073493;28;20451;-77
2024/03/28 02:32:56;;;;;;;4.65;0.70;;;;;;;11.20;64.05;98519.97;5072626;28;20051;-77
2024/03/28 02:36:01;;;;;;;2.78;1.15;;;;;;;11.45;63.41;98524.06;5073378;28;20059;-77
2024/03/28 02:39:06;;;;;;;3.75;0.90;;;;;;;11.37;64.22;98510.72;5073120;28;20051;-79
2024/03/28 02:42:10;;;;;;;4.45;0.93;;;;;;;11.21;65.81;98517.09;5072867;28;20118;-78
2024/03/28 02:45:15;;;;;;;3.88;0.80;;;;;;;11.25;65.87;98525.63;5072576;28;20052;-78
2024/03/28 02:48:19;;;;;;;5.57;1.10;;;;;;;11.22;64.96;98526.00;5072083;28;20060;-78
2024/03/28 02:51:24;;;;;;;8.60;2.47;;;;;;;11.08;63.55;98536.50;5073568;28;20478;-78
2024/03/28 02:54:29;;;;;;;3.55;0.80;;;;;;;11.17;62.79;98533.75;5073149;28;20055;-78
2024/03/28 02:57:36;;;;;;;3.03;0.73;;;;;;;11.01;64.48;98540.13;5073401;28;20489;-78
2024/03/28 03:00:41;;;;;;;3.25;0.80;;;;;;;10.98;64.26;98533.28;5073773;28;20060;-79
2024/03/28 03:03:45;;;;;;;7.07;1.10;;;;;;;11.14;62.13;98534.94;5073318;28;20051;-75
2024/03/28 03:06:51;;;;;;;7.47;1.08;;;;;;;11.34;60.95;98525.34;5072231;28;20048;-78
2024/03/28 03:09:56;;;;;;;3.40;0.80;;;;;;;11.22;61.46;98523.31;5072817;28;20056;-77
2024/03/28 03:13:00;;;;;;;6.05;0.73;;;;;;;11.20;61.50;98539.59;5072570;28;20049;-76
2024/03/28 03:16:05;;;;;;;6.00;0.70;;;;;;;11.24;60.82;98556.16;5072886;28;20063;-76
2024/03/28 03:19:10;;;;;;;4.30;0.60;;;;;;;11.27;60.40;98548.59;5072018;28;20384;-77
2024/03/28 03:22:15;;;;;;;5.82;0.80;;;;;;;11.39;59.32;98538.22;5072939;28;20043;-77
2024/03/28 03:25:28;;;;;;;3.92;0.60;;;;;;;11.50;58.20;98545.84;5072879;28;20051;-76
2024/03/28 03:35:19;;;;;;;5.07;1.10;;;;;;;11.26;59.20;98538.84;5073010;28;20067;-78
2024/03/28 03:38:23;;;;;;;4.35;0.90;;;;;;;10.99;61.75;98532.25;5072764;28;20406;-78
2024/03/28 03:41:28;;;;;;;4.00;1.08;;;;;;;11.38;60.13;98525.84;5075916;28;20059;-78
2024/03/28 03:44:33;;;;;;;5.15;0.70;;;;;;;11.48;58.86;98519.16;5076440;28;20399;-76
2024/03/28 03:47:37;;;;;;;3.58;1.20;;;;;;;11.55;58.71;98538.06;5076437;28;20150;-78
2024/03/28 03:50:42;;;;;;;3.67;0.68;;;;;;;11.63;57.98;98528.03;5075438;28;20387;-78
2024/03/28 03:53:46;;;;;;;4.60;1.00;;;;;;;11.64;57.91;98531.56;5076262;28;20036;-78
2024/03/28 03:56:51;;;;;;;3.47;1.05;;;;;;;11.68;58.28;98525.66;5076328;28;20047;-78
2024/03/28 03:59:56;;;;;;;2.85;0.98;;;;;;;11.69;58.78;98521.13;5076643;28;20055;-77
2024/03/28 04:03:01;;;;;;;2.70;0.90;;;;;;;11.62;58.60;98517.50;5076348;28;20044;-79
2024/03/28 04:06:05;;;;;;;3.15;1.00;;;;;;;11.22;60.77;98526.81;5076293;28;20043;-77
2024/03/28 04:09:11;;;;;;;2.83;0.77;;;;;;;11.23;60.85;98527.66;5075899;28;20056;-76
2024/03/28 04:12:16;;;;;;;5.70;1.10;;;;;;;11.50;60.17;98519.81;5086390;28;20051;-76
2024/03/28 04:15:20;;;;;;;5.38;1.08;;;;;;;11.59;59.17;98523.22;5076126;28;20048;-77
2024/03/28 04:18:25;;;;;;;2.97;1.00;;;;;;;11.19;61.72;98531.72;5076120;28;20387;-77
2024/03/28 04:21:29;;;;;;;4.47;1.10;;;;;;;11.40;60.64;98521.94;5076069;28;20455;-76
2024/03/28 04:24:33;;;;;;;3.58;1.10;;;;;;;11.64;59.70;98508.22;5054362;28;20063;-77
2024/03/28 04:27:38;;;;;;;5.20;1.10;;;;;;;11.77;59.17;98483.41;5053588;28;20052;-77
2024/03/28 04:30:42;;;;;;;5.65;1.40;;;;;;;11.73;59.30;98499.06;5053956;28;20076;-77
2024/03/28 04:33:48;;;;;;;5.22;0.90;;;;;;;11.73;59.34;98535.84;5053616;28;20483;-76
2024/03/28 04:36:53;;;;;;;6.65;1.35;;;;;;;11.81;59.77;98519.63;5053553;28;20056;-76
2024/03/28 04:39:57;;;;;;;4.90;1.30;;;;;;;11.78;59.64;98511.13;5053548;28;20172;-78
2024/03/28 04:43:01;;;;;;;4.00;0.70;;;;;;;11.86;59.67;98529.81;5053280;28;20056;-79
2024/03/28 04:46:06;;;;;;;2.65;0.80;;;;;;;11.84;59.85;98546.16;5053445;28;20056;-79
2024/03/28 04:49:11;;;;;;;3.92;0.90;;;;;;;11.84;59.71;98543.47;5053452;28;20166;-78
2024/03/28 04:52:15;;;;;;;2.97;0.80;;;;;;;11.74;60.04;98543.75;5053040;28;20144;-77
2024/03/28 04:55:20;;;;;;;5.35;1.00;;;;;;;11.52;61.91;98546.50;5066846;28;20056;-77
2024/03/28 04:58:24;;;;;;;4.65;1.00;;;;;;;11.50;62.23;98556.59;5074858;28;20063;-77
2024/03/28 05:01:30;;;;;;;5.28;1.00;;;;;;;11.65;62.24;98535.94;5094700;28;20055;-78
2024/03/28 05:04:34;;;;;;;5.32;1.17;;;;;;;11.68;62.38;98547.16;5095504;28;20055;-78
2024/03/28 05:07:40;;;;;;;2.65;0.70;;;;;;;11.71;62.56;98546.81;5094959;28;20055;-78
2024/03/28 05:10:44;;;;;;;2.95;0.90;;;;;;;11.60;63.44;98566.03;5094500;28;20051;-77
2024/03/28 05:13:49;;;;;;;6.57;1.02;;;;;;;11.66;64.74;98556.41;5095163;28;20478;-79
2024/03/28 05:16:53;;;;;;;3.70;1.42;;;;;;;11.18;67.31;98548.88;5093628;28;20509;-78
2024/03/28 05:19:57;;;;;;;5.07;1.20;;;;;;;11.61;66.96;98558.81;5095301;28;20043;-78
2024/03/28 05:23:02;;;;;;;4.20;1.20;;;;;;;11.61;67.07;98561.50;5094917;28;20051;-78
2024/03/28 05:26:07;;;;;;;3.63;1.40;;;;;;;11.41;69.17;98574.63;5094715;28;20047;-77
2024/03/28 05:29:12;;;;;;;7.90;1.52;;;;;;;11.53;69.29;98585.78;5094813;28;20055;-77
2024/03/28 05:32:18;;;;;;;3.30;1.00;;;;;;;11.67;69.78;98576.91;5094031;28;20059;-78
2024/03/28 05:35:23;;;;;;;9.07;2.08;;;;;;;11.76;69.91;98570.44;5094632;28;20584;-78
2024/03/28 05:38:28;;;;;;;6.63;2.22;;;;;;;11.59;71.92;98577.81;5090549;28;20055;-78
2024/03/28 05:41:33;;;;;;;4.53;1.20;;;;;;;11.67;72.39;98566.16;5073079;28;20087;-78
2024/03/28 05:44:37;;;;;;;3.40;1.10;;;;;;;11.47;73.28;98576.59;5074268;28;20048;-78
2024/03/28 05:47:42;;;;;;;9.30;1.50;;;;;;;11.47;74.63;98581.97;5075374;28;20051;-77
2024/03/28 05:50:47;;;;;;;3.55;1.20;;;;;;;11.44;74.93;98589.56;5076257;28;20048;-78
2024/03/28 05:53:54;;;;;;;4.70;1.27;;;;;;;11.57;75.58;98587.06;5074914;28;20051;-77
2024/03/28 05:56:59;;;;;;;4.70;1.35;;;;;;;11.58;76.31;98581.50;5073849;28;20051;-77
2024/03/28 06:00:05;;;;;;;6.72;1.17;;;;;;;11.67;77.28;98580.41;5074107;28;20055;-77
2024/03/28 06:03:16;;;;;;;5.63;1.25;;;;;;;11.70;76.95;98580.06;5083132;28;20079;-77
2024/03/28 06:06:21;;;;;;;3.05;1.15;;;;;;;11.58;77.65;98594.09;5073922;28;20056;-78
2024/03/28 06:09:26;;;;;;;2.63;1.20;;;;;;;11.47;79.15;98603.47;5061453;28;20047;-77
2024/03/28 06:12:30;;;;;;;4.47;1.40;;;;;;;11.52;79.80;98611.81;5073061;28;20486;-77
2024/03/28 06:15:34;;;;;;;5.30;1.67;;;;;;;11.82;78.30;98607.34;5073924;28;20056;-78
2024/03/28 06:18:39;;;;;;;3.55;1.55;;;;;;;12.00;78.41;98615.84;5073888;28;20056;-78
2024/03/28 06:21:43;;;;;;;4.30;1.40;;;;;;;12.01;79.43;98620.22;5073770;28;20470;-76
2024/03/28 06:24:48;;;;;;;5.22;1.27;;;;;;;11.95;81.65;98631.69;5073779;28;20047;-76
2024/03/28 06:27:56;;;;;;;4.72;1.50;;;;;;;11.82;83.59;98628.84;5092820;28;20071;-77
2024/03/28 06:31:00;;;;;;;6.05;3.40;;;;;;;11.68;84.74;98635.00;5103691;28;20051;-78
2024/03/28 06:34:05;;;;;;;6.95;3.10;;;;;;;11.54;86.24;98646.56;5093234;28;20047;-78
2024/03/28 06:37:09;;;;;;;4.75;2.90;;;;;;;11.44;86.66;98660.25;5093300;28;20059;-77
2024/03/28 06:40:15;;;;;;;5.35;2.53;;;;;;;11.43;86.26;98671.19;5093262;28;20535;-76
2024/03/28 06:43:20;;;;;;;5.30;2.10;;;;;;;11.32;86.08;98682.34;5093401;28;20387;-77
2024/03/28 06:46:24;;;;;;;6.25;2.40;;;;;;;11.39;85.89;98684.13;5092418;28;20043;-80
2024/03/28 06:49:30;;;;;;;6.47;2.70;;;;;;;11.38;85.37;98677.06;5086334;28;20058;-77
2024/03/28 06:52:34;;;;;;;16.80;9.90;;;;;;;11.40;85.36;98669.69;5093354;28;20047;-78
2024/03/28 06:55:39;;;;;;;11.20;3.53;;;;;;;11.65;83.59;98646.94;5092988;28;20051;-77
2024/03/28 06:58:43;;;;;;;6.38;2.97;;;;;;;11.40;84.92;98650.91;5104365;28;20051;-77
2024/03/28 07:01:48;;;;;;;9.98;3.78;;;;;;;11.34;84.64;98635.47;5092367;28;20051;-78
2024/03/28 07:04:53;;;;;;;6.32;3.22;;;;;;;11.27;84.65;98650.66;5077435;28;20048;-76
2024/03/28 07:07:58;;;;;;;8.73;3.92;;;;;;;11.24;84.55;98634.06;5081494;28;20051;-74
2024/03/28 07:11:02;;;;;;;6.38;3.40;;;;;;;11.26;84.05;98635.53;5077621;28;20052;-77
2024/03/28 07:14:07;;;;;;;11.85;5.65;;;;;;;11.17;84.59;98625.06;5082634;28;20399;-76
2024/03/28 07:17:12;;;;;;;13.50;6.10;;;;;;;11.09;84.84;98615.22;5086640;28;20039;-75
2024/03/28 07:20:20;;;;;;;9.90;4.10;;;;;;;10.99;85.30;98631.56;5093624;28;20399;-78
2024/03/28 07:23:30;;;;;;;9.15;4.25;;;;;;;11.00;85.73;98606.41;5089317;28;20055;-76
2024/03/28 07:26:36;;;;;;;9.23;4.75;;;;;;;11.09;86.49;98604.47;5095031;28;20043;-75
2024/03/28 07:29:41;;;;;;;9.20;4.53;;;;;;;11.20;86.50;98627.38;5094846;28;20051;-76
2024/03/28 07:32:48;;;;;;;7.75;4.43;;;;;;;11.29;86.54;98613.72;5097291;28;20051;-76
2024/03/28 07:35:53;;;;;;;9.20;4.80;;;;;;;11.32;86.45;98624.09;5097199;28;20051;-73
2024/03/28 07:38:57;;;;;;;6.60;5.05;;;;;;;11.43;86.17;98620.94;5097511;28;20497;-74
2024/03/28 07:42:02;;;;;;;9.23;5.47;;;;;;;11.30;86.76;98615.38;5096472;28;20051;-78
2024/03/28 07:45:07;;;;;;;9.32;5.78;;;;;;;11.60;84.73;98611.72;5096712;28;20485;-73
2024/03/28 07:48:12;;;;;;;16.10;7.07;;;;;;;11.55;83.60;98605.25;5083238;28;20501;-76
2024/03/28 07:51:17;;;;;;;9.73;5.68;;;;;;;11.36;83.81;98597.69;5076543;28;20060;-72
2024/03/28 07:54:22;;;;;;;6.88;5.18;;;;;;;11.43;83.74;98618.25;5075693;28;20071;-78
2024/03/28 07:57:27;;;;;;;10.13;5.05;;;;;;;11.53;83.83;98618.03;5076430;28;20051;-77
2024/03/28 08:00:31;;;;;;;9.18;5.88;;;;;;;11.65;83.37;98597.75;5076349;28;20047;-77
2024/03/28 08:03:37;;;;;;;9.27;5.45;;;;;;;11.68;83.80;98565.97;5085243;28;20055;-75
2024/03/28 08:06:42;;;;;;;9.63;5.85;;;;;;;11.55;84.63;98581.88;5076162;28;20047;-80
2024/03/28 08:09:47;;;;;;;9.57;6.13;;;;;;;11.63;84.55;98586.31;5075828;28;20048;-77
2024/03/28 08:12:51;;;;;;;10.38;5.80;;;;;;;11.43;84.63;98569.09;5073974;28;20048;-77
2024/03/28 08:15:56;;;;;;;7.70;5.43;;;;;;;11.57;84.39;98573.66;5075236;28;20035;-77
2024/03/28 08:19:02;;;;;;;8.90;5.85;;;;;;;11.72;83.90;98582.59;5075989;28;20059;-78
2024/03/28 08:22:08;;;;;;;10.98;5.80;;;;;;;11.56;84.86;98597.00;5075817;28;20371;-78
2024/03/28 08:25:12;;;;;;;13.13;5.72;;;;;;;11.46;84.71;98593.72;5074029;28;20384;-78
2024/03/28 08:28:18;;;;;;;10.25;5.72;;;;;;;11.50;83.95;98605.81;5075396;28;20067;-77
2024/03/28 08:31:23;;;;;;;8.52;4.75;;;;;;;11.62;84.59;98590.03;5075769;28;20103;-78
2024/03/28 08:34:28;;;;;;;8.88;5.13;;;;;;;11.64;84.08;98596.06;5076039;28;20043;-79
2024/03/28 08:37:32;;;;;;;8.18;5.35;;;;;;;11.52;84.22;98619.03;5075579;28;20048;-78
2024/03/28 08:40:37;;;;;;;7.50;5.35;;;;;;;11.62;84.88;98592.75;5075106;28;20052;-78
2024/03/28 08:43:47;;;;;;;8.80;6.18;;;;;;;11.53;84.82;98616.16;5075613;28;20490;-77
2024/03/28 08:46:52;;;;;;;9.63;6.18;;;;;;;11.51;85.64;98603.91;5086352;28;20383;-78
2024/03/28 08:49:57;;;;;;;8.45;6.07;;;;;;;11.43;86.85;98614.78;5075260;28;20055;-78
2024/03/28 08:53:01;;;;;;;18.02;9.30;;;;;;;11.54;86.24;98617.00;5075351;28;20048;-77
2024/03/28 08:56:06;;;;;;;12.52;8.63;;;;;;;11.36;87.50;98597.69;5075172;28;20118;-77
2024/03/28 08:59:11;;;;;;;11.35;7.72;;;;;;;11.49;87.79;98605.97;5075200;28;20474;-77
2024/03/28 09:02:15;;;;;;;15.73;8.20;;;;;;;11.65;86.91;98608.50;5075103;28;20056;-76
2024/03/28 09:05:20;;;;;;;15.23;8.65;;;;;;;11.63;87.48;98602.44;5075020;28;20379;-78
2024/03/28 09:08:26;;;;;;;11.52;8.32;;;;;;;11.68;88.16;98603.59;5074871;28;20075;-78
2024/03/28 09:11:31;;;;;;;13.27;7.30;;;;;;;11.82;87.49;98614.56;5074915;28;20047;-78
2024/03/28 09:14:42;;;;;;;8.48;6.63;;;;;;;11.92;87.03;98660.81;5074806;28;20071;-79
2024/03/28 09:17:47;;;;;;;11.88;6.65;;;;;;;11.92;86.75;98671.59;5074900;28;20067;-78
2024/03/28 09:20:51;;;;;;;10.32;6.75;;;;;;;11.64;87.64;98666.78;5074856;28;20056;-79
2024/03/28 09:23:59;;;;;;;14.02;6.97;;;;;;;11.84;87.11;98645.63;5074005;28;20128;-79
2024/03/28 09:27:05;;;;;;;9.23;6.03;;;;;;;11.86;87.52;98627.44;5074709;28;20052;-79
2024/03/28 09:30:13;;;;;;;8.80;6.43;;;;;;;11.81;87.39;98631.69;5074895;28;20043;-80
2024/03/28 09:33:19;;;;;;;9.32;6.20;;;;;;;11.71;88.39;98656.16;5085704;28;20067;-79
2024/03/28 09:36:24;;;;;;;8.25;6.13;;;;;;;11.56;89.79;98657.94;5074610;28;20047;-79
2024/03/28 09:39:29;;;;;;;10.13;6.55;;;;;;;11.77;88.96;98662.66;5074376;28;20060;-79
2024/03/28 09:42:36;;;;;;;10.57;6.78;;;;;;;12.00;88.45;98666.94;5033602;28;20060;-78
2024/03/28 09:45:43;;;;;;;33.92;24.45;;;;;;;12.13;87.90;98659.06;5044803;28;20510;-78
2024/03/28 09:48:48;;;;;;;20.10;14.60;;;;;;;12.13;87.77;98677.91;5034420;28;20056;-79
2024/03/28 09:51:56;;;;;;;10.38;6.88;;;;;;;12.13;87.37;98704.78;5034241;28;20056;-79
2024/03/28 09:55:02;;;;;;;10.27;5.35;;;;;;;12.22;87.39;98702.84;5034005;28;20056;-78
2024/03/28 09:58:09;;;;;;;7.60;5.10;;;;;;;12.17;87.98;98689.94;5034210;28;20048;-79
2024/03/28 10:01:14;;;;;;;8.88;5.35;;;;;;;12.27;88.47;98703.13;5034112;28;20052;-77
2024/03/28 10:04:19;;;;;;;8.50;5.43;;;;;;;12.48;88.09;98687.06;5034187;28;20056;-78
2024/03/28 10:07:33;;;;;;;9.85;5.45;;;;;;;12.07;89.68;98688.56;5033743;28;20075;-77
2024/03/28 10:10:38;;;;;;;;;;;;;;;12.29;89.95;98679.56;5034500;28;20052;-78
2024/03/28 10:13:44;;;;;;;6.13;3.83;;;;;;;12.31;91.05;98667.59;5033727;28;20413;-78
2024/03/28 10:16:49;;;;;;;7.30;4.07;;;;;;;12.38;90.55;98684.66;5033727;28;20089;-77
2024/03/28 10:20:01;;;;;;;4.90;3.42;;;;;;;12.35;91.66;98703.03;5033789;28;20064;-79
2024/03/28 10:23:09;;;;;;;4.57;3.38;;;;;;;12.47;90.49;98680.00;5039569;28;20048;-77
2024/03/28 10:26:18;;;;;;;5.68;3.55;;;;;;;12.21;91.44;98704.72;5034939;28;20049;-77
2024/03/28 10:29:23;;;;;;;6.40;4.72;;;;;;;12.40;91.76;98701.44;5033182;28;20052;-79
2024/03/28 10:32:31;;;;;;;7.43;4.05;;;;;;;12.21;93.25;98693.09;5033538;28;20456;-78
2024/03/28 10:35:42;;;;;;;6.63;4.30;;;;;;;12.11;94.96;98706.00;5033479;28;20056;-78
2024/03/28 10:38:47;;;;;;;7.95;4.32;;;;;;;12.64;92.65;98712.94;5033417;28;20060;-78
2024/03/28 10:41:52;;;;;;;7.43;4.22;;;;;;;12.77;91.65;98703.16;5066320;28;20075;-79
2024/03/28 10:44:59;;;;;;;6.15;4.65;;;;;;;12.69;91.63;98710.53;5073245;28;20055;-80
2024/03/28 10:48:13;;;;;;;9.23;4.78;;;;;;;12.98;90.58;98729.31;5072906;28;20063;-79
2024/03/28 10:51:22;;;;;;;6.85;4.63;;;;;;;13.06;90.79;98702.28;5073301;28;20155;-79
2024/03/28 10:54:41;;;;;;;6.43;5.10;;;;;;;13.04;90.49;98704.28;5073328;28;20047;-78
2024/03/28 10:57:47;;;;;;;6.45;5.03;;;;;;;12.94;91.29;98711.84;5073287;28;20157;-78
2024/03/28 11:00:53;;;;;;;5.72;4.88;;;;;;;12.89;91.26;98714.28;5073213;28;20048;-78
2024/03/28 11:04:02;;;;;;;7.47;4.30;;;;;;;12.88;91.72;98704.53;5072303;28;20055;-77
2024/03/28 11:07:19;;;;;;;6.32;4.35;;;;;;;13.08;90.64;98710.19;5073295;28;20051;-79
2024/03/28 11:10:27;;;;;;;5.97;3.92;;;;;;;13.08;90.93;98711.03;5073047;28;20067;-78
2024/03/28 11:13:32;;;;;;;6.30;3.83;;;;;;;13.13;91.93;98715.84;5072945;28;20067;-78
2024/03/28 11:16:37;;;;;;;5.38;3.78;;;;;;;13.08;91.61;98742.50;5073255;28;20384;-78
2024/03/28 11:19:45;;;;;;;5.13;3.47;;;;;;;13.17;92.27;98709.03;5073143;28;20059;-79
2024/03/28 11:22:50;;;;;;;7.25;3.42;;;;;;;13.15;93.28;98716.47;5072893;28;20068;-78
2024/03/28 11:26:05;;;;;;;7.18;3.40;;;;;;;13.11;93.33;98718.69;5073146;28;20366;-78
2024/03/28 11:29:11;;;;;;;5.47;3.13;;;;;;;13.27;93.18;98717.63;5072893;28;20075;-77
2024/03/28 11:32:22;;;;;;;4.85;2.78;;;;;;;13.30;92.63;98718.09;5073152;28;20043;-78
2024/03/28 11:35:27;;;;;;;3.55;2.35;;;;;;;13.39;92.57;98724.19;5073129;28;20051;-77
2024/03/28 11:38:33;;;;;;;5.25;2.20;;;;;;;13.47;93.03;98724.06;5072685;28;20048;-79
2024/03/28 11:41:38;;;;;;;3.92;2.13;;;;;;;13.58;92.99;98728.91;5072202;28;20510;-79
2024/03/28 11:44:44;;;;;;;4.80;2.20;;;;;;;13.55;93.30;98711.28;5072703;28;20051;-77
2024/03/28 11:47:48;;;;;;;3.92;2.00;;;;;;;13.36;93.93;98713.78;5072524;28;20115;-80
2024/03/28 11:50:54;;;;;;;3.75;2.00;;;;;;;13.68;93.37;98713.25;5073053;28;20055;-79
2024/03/28 11:54:02;;;;;;;3.35;2.00;;;;;;;13.79;93.06;98717.28;5073158;28;20391;-78
2024/03/28 11:57:07;;;;;;;4.00;2.17;;;;;;;14.12;91.86;98703.00;5072618;28;20119;-77
2024/03/28 12:00:14;;;;;;;3.55;1.77;;;;;;;14.38;91.11;98717.75;5073753;28;20052;-79
2024/03/28 12:03:20;;;;;;;3.80;1.73;;;;;;;14.19;91.65;98720.09;5076070;28;20430;-77
2024/03/28 12:06:25;;;;;;;3.78;2.30;;;;;;;14.47;90.39;98711.97;5075193;28;20071;-78
2024/03/28 12:09:29;;;;;;;6.43;2.70;;;;;;;14.74;89.68;98726.47;5075973;28;20064;-77
2024/03/28 12:12:38;;;;;;;3.25;1.90;;;;;;;14.87;88.76;98716.53;5076215;28;20482;-78
2024/03/28 12:15:43;;;;;;;5.03;1.98;;;;;;;14.98;88.90;98713.28;5086716;28;20044;-78
2024/03/28 12:18:48;;;;;;;5.85;2.20;;;;;;;15.25;88.88;98726.84;5075863;28;20048;-77
2024/03/28 12:21:52;;;;;;;5.15;1.90;;;;;;;15.26;87.72;98742.88;5075909;28;20044;-78
2024/03/28 12:24:57;;;;;;;4.20;1.60;;;;;;;15.28;87.02;98758.91;5075485;28;20063;-78
2024/03/28 12:28:05;;;;;;;5.72;1.55;;;;;;;15.16;87.26;98761.34;5086443;28;20103;-77
2024/03/28 12:31:10;;;;;;;5.88;1.40;;;;;;;15.13;86.29;98777.13;5075431;28;20498;-77
2024/03/28 12:34:14;;;;;;;3.90;1.25;;;;;;;14.93;86.97;98774.34;5075681;28;20431;-78
2024/03/28 12:37:19;;;;;;;4.38;1.42;;;;;;;14.98;87.62;98756.50;5074703;28;20051;-77
2024/03/28 12:40:27;;;;;;;4.05;1.30;;;;;;;15.41;87.09;98761.63;5075028;28;20063;-77
2024/03/28 12:43:31;;;;;;;7.38;1.50;;;;;;;15.68;86.64;98767.97;5086332;28;20055;-78
2024/03/28 12:46:43;;;;;;;5.43;2.10;;;;;;;15.56;85.49;98798.31;5075489;28;20143;-77
2024/03/28 12:49:49;;;;;;;3.25;1.50;;;;;;;15.71;84.00;98795.44;5075422;28;20071;-78
2024/03/28 12:52:54;;;;;;;4.45;1.77;;;;;;;15.87;84.30;98807.75;5086104;28;20059;-77
2024/03/28 12:55:59;;;;;;;3.42;1.80;;;;;;;16.08;84.00;98816.50;5075226;28;20395;-78
2024/03/28 12:59:04;;;;;;;3.97;1.85;;;;;;;16.22;84.60;98799.22;5075456;28;20051;-78
2024/03/28 13:02:08;;;;;;;3.63;1.70;;;;;;;16.52;84.00;98826.72;5085999;28;20047;-78
2024/03/28 13:05:13;;;;;;;3.22;1.55;;;;;;;16.49;84.05;98832.53;5075418;28;20056;-78
2024/03/28 13:08:18;;;;;;;4.60;1.80;;;;;;;16.46;84.31;98830.25;5074880;28;20055;-79
2024/03/28 13:11:22;;;;;;;3.15;1.50;;;;;;;16.24;83.93;98836.94;5074727;28;20051;-76
2024/03/28 13:14:30;;;;;;;2.78;1.50;;;;;;;16.08;84.42;98850.84;5074849;28;20059;-78
2024/03/28 13:17:35;;;;;;;6.30;1.60;;;;;;;16.17;84.88;98855.84;5075043;28;20051;-78
2024/03/28 13:20:40;;;;;;;3.35;1.42;;;;;;;16.31;84.88;98861.28;5074061;28;20387;-77
2024/03/28 13:23:45;;;;;;;5.05;1.70;;;;;;;16.35;84.87;98867.94;5074844;28;20056;-78
2024/03/28 13:26:49;;;;;;;3.28;1.33;;;;;;;16.32;83.80;98890.84;5074867;28;20056;-78
2024/03/28 13:29:54;;;;;;;5.10;1.50;;;;;;;16.01;84.98;98896.88;5074737;28;20052;-79
2024/03/28 13:32:58;;;;;;;2.78;1.25;;;;;;;15.94;85.56;98882.50;5073922;28;20055;-77
2024/03/28 13:36:03;;;;;;;4.35;1.35;;;;;;;16.15;85.16;98889.59;5073731;28;20051;-78
2024/03/28 13:39:08;;;;;;;3.70;1.50;;;;;;;16.03;85.26;98902.91;5074465;28;20067;-77
2024/03/28 13:42:13;;;;;;;5.85;1.40;;;;;;;15.81;84.86;98914.06;5073910;28;20056;-79
2024/03/28 13:45:17;;;;;;;3.67;1.30;;;;;;;15.85;85.59;98918.88;5074117;28;20490;-78
2024/03/28 13:48:22;;;;;;;2.85;1.52;;;;;;;16.05;85.40;98927.88;5074199;28;20051;-78
2024/03/28 13:51:27;;;;;;;6.47;3.47;;;;;;;16.11;85.58;98921.66;5073925;28;20505;-78
2024/03/28 13:54:32;;;;;;;4.82;2.00;;;;;;;16.31;85.22;98929.00;5073148;28;20048;-78
2024/03/28 13:57:37;;;;;;;4.13;2.10;;;;;;;16.46;84.18;98926.94;5074082;28;20044;-78
2024/03/28 14:00:42;;;;;;;4.55;2.08;;;;;;;16.42;84.14;98923.78;5074368;28;20048;-77
2024/03/28 14:03:47;;;;;;;4.75;1.92;;;;;;;16.23;84.09;98946.25;5073961;28;20047;-78
2024/03/28 14:06:52;;;;;;;3.13;1.70;;;;;;;16.03;84.35;98946.22;5073895;28;20051;-78
2024/03/28 14:09:56;;;;;;;3.08;1.15;;;;;;;15.97;84.76;98947.00;5073062;28;20490;-76
2024/03/28 14:13:02;;;;;;;3.70;1.38;;;;;;;15.91;84.58;98947.84;5072531;28;20085;-78
2024/03/28 14:16:06;;;;;;;4.82;1.85;;;;;;;15.86;84.46;98933.25;5073476;28;20043;-77
2024/03/28 14:19:11;;;;;;;3.22;1.33;;;;;;;15.91;84.71;98925.34;5073571;28;20063;-77
2024/03/28 14:22:18;;;;;;;3.63;1.50;;;;;;;15.97;83.96;98933.47;5072229;28;20103;-77
2024/03/28 14:25:22;;;;;;;3.38;1.90;;;;;;;15.79;85.01;98949.47;5073365;28;20048;-78
2024/03/28 14:28:27;;;;;;;4.40;1.65;;;;;;;15.67;85.51;98953.78;5073526;28;20059;-78
2024/03/28 14:31:33;;;;;;;3.92;2.08;;;;;;;15.51;86.23;98952.25;5073354;28;20060;-78
2024/03/28 14:34:37;;;;;;;4.60;2.00;;;;;;;15.36;86.32;98940.69;5073498;28;20051;-78
2024/03/28 14:37:42;;;;;;;3.97;2.00;;;;;;;15.27;87.18;98954.56;5072653;28;20051;-78